Time;durP1;ratioP1;P1;durP2;ratioP2;P2;SDS_P1;SDS_P2;PMS_P1;PMS_P2;Temp;Humidity;BMP_temperature;BMP_pressure;BME280_temperature;BME280_humidity;BME280_pressure;Samples;Min_cycle;Max_cycle;Signal;HPM_P1;HPM_P2
2023/04/18 00:00:41;;;;;;;;;;;;;;;6.38;100.00;96840.72;5037712;28;20021;-73
2023/04/18 00:03:08;;;;;;;;;;;;;;;6.38;100.00;96837.31;5056109;28;20322;-76
2023/04/18 00:05:35;;;;;;;;;;;;;;;6.37;100.00;96835.72;5054290;28;19943;-73
2023/04/18 00:08:01;;;;;;;;;;;;;;;6.37;100.00;96836.53;5038366;28;19943;-73
2023/04/18 00:10:27;;;;;;;;;;;;;;;6.38;100.00;96829.50;5054718;28;19946;-73
2023/04/18 00:12:53;;;;;;;;;;;;;;;6.36;100.00;96829.69;5037524;28;20415;-73
2023/04/18 00:15:19;;;;;;;;;;;;;;;6.35;100.00;96819.47;5037197;28;19973;-73
2023/04/18 00:17:46;;;;;;;;;;;;;;;6.35;100.00;96819.47;5054018;28;19952;-72
2023/04/18 00:20:12;;;;;;;;;;;;;;;6.33;100.00;96814.44;5054072;28;19951;-72
2023/04/18 00:22:42;;;;;;;;;;;;;;;6.33;100.00;96816.22;5053939;28;20316;-75
2023/04/18 00:25:09;;;;;;;;;;;;;;;6.30;100.00;96804.38;5037721;28;19946;-79
2023/04/18 00:27:35;;;;;;;;;;;;;;;6.28;100.00;96808.97;5055019;28;19943;-78
2023/04/18 00:30:01;;;;;;;;;;;;;;;6.24;100.00;96815.53;5053964;28;19940;-79
2023/04/18 00:32:27;;;;;;;;;;;;;;;6.23;100.00;96806.88;5054848;28;19960;-79
2023/04/18 00:34:53;;;;;;;;;;;;;;;6.20;100.00;96807.25;5054950;28;19983;-79
2023/04/18 00:37:19;;;;;;;;;;;;;;;6.20;100.00;96799.44;5053675;28;20537;-78
2023/04/18 00:39:44;;;;;;;;;;;;;;;6.20;100.00;96806.47;5055183;28;19942;-74
2023/04/18 00:42:10;;;;;;;;;;;;;;;6.20;100.00;96798.66;5054206;28;19992;-72
2023/04/18 00:44:36;;;;;;;;;;;;;;;6.20;100.00;96796.03;5053787;28;19998;-72
2023/04/18 00:47:02;;;;;;;;;;;;;;;6.17;100.00;96794.59;5054699;28;19946;-71
2023/04/18 00:49:28;;;;;;;;;;;;;;;6.16;100.00;96800.78;5053376;28;19946;-72
2023/04/18 00:51:54;;;;;;;;;;;;;;;6.17;100.00;96799.00;5053448;28;19955;-71
2023/04/18 00:54:20;;;;;;;;;;;;;;;6.16;100.00;96792.97;5054580;28;19941;-71
2023/04/18 00:56:46;;;;;;;;;;;;;;;6.17;100.00;96799.00;5036674;28;19944;-71
2023/04/18 00:59:12;;;;;;;;;;;;;;;6.16;100.00;96792.97;5054140;28;19950;-74
2023/04/18 01:01:42;;;;;;;;;;;;;;;6.16;100.00;96795.59;5053984;28;19943;-74
2023/04/18 01:04:08;;;;;;;;;;;;;;;6.14;100.00;96797.56;5036489;28;19947;-74
2023/04/18 01:06:34;;;;;;;;;;;;;;;6.12;100.00;96783.13;5054285;28;19989;-74
2023/04/18 01:09:01;;;;;;;;;;;;;;;6.11;100.00;96792.72;5053044;28;19947;-74
2023/04/18 01:11:26;;;;;;;;;;;;;;;6.11;100.00;96790.13;5053667;28;19999;-75
2023/04/18 01:14:03;;;;;;;;;;;;;;;6.10;100.00;96794.50;5053645;28;20385;-74
2023/04/18 01:16:31;;;;;;;;;;;;;;;6.12;100.00;96790.94;5053946;28;19967;-74
2023/04/18 01:19:00;;;;;;;;;;;;;;;6.12;100.00;96783.13;5036260;28;19957;-73
2023/04/18 01:21:30;;;;;;;;;;;;;;;6.12;100.00;96790.94;5053686;28;19940;-73
2023/04/18 01:24:01;;;;;;;;;;;;;;;6.12;100.00;96776.09;5036999;28;19956;-72
2023/04/18 01:26:28;;;;;;;;;;;;;;;6.13;100.00;96780.31;5035162;28;19956;-73
2023/04/18 01:28:54;;;;;;;;;;;;;;;6.15;100.00;96774.94;5036130;28;19950;-73
2023/04/18 01:31:20;;;;;;;;;;;;;;;6.16;100.00;96766.16;5036818;28;19972;-72
2023/04/18 01:33:46;;;;;;;;;;;;;;;6.16;100.00;96766.94;5053843;28;19945;-74
2023/04/18 01:36:12;;;;;;;;;;;;;;;6.16;100.00;96769.53;5035962;28;20514;-77
2023/04/18 01:38:37;;;;;;;;;;;;;;;6.16;100.00;96766.16;5035975;28;19992;-75
2023/04/18 01:41:03;;;;;;;;;;;;;;;6.16;100.00;96760.94;5053098;28;20430;-74
2023/04/18 01:43:29;;;;;;;;;;;;;;;6.16;100.00;96759.13;5036176;28;19948;-75
2023/04/18 01:45:55;;;;;;;;;;;;;;;6.16;100.00;96755.72;5035878;28;19945;-74
2023/04/18 01:48:21;;;;;;;;;;;;;;;6.17;100.00;96767.75;5054469;28;19947;-74
2023/04/18 01:50:47;;;;;;;;;;;;;;;6.17;100.00;96754.72;5054059;28;19992;-76
2023/04/18 01:53:12;;;;;;;;;;;;;;;6.19;100.00;96765.75;5053647;28;19944;-77
2023/04/18 01:55:38;;;;;;;;;;;;;;;6.20;100.00;96764.78;5054457;28;19948;-73
2023/04/18 01:58:04;;;;;;;;;;;;;;;6.24;100.00;96768.66;5052393;28;20333;-74
2023/04/18 02:00:30;;;;;;;;;;;;;;;6.25;100.00;96765.03;5053517;28;19995;-74
2023/04/18 02:02:57;;;;;;;;;;;;;;;6.26;100.00;96754.44;5054057;28;19946;-74
2023/04/18 02:05:23;;;;;;;;;;;;;;;6.28;100.00;96756.88;5054323;28;19953;-74
2023/04/18 02:07:49;;;;;;;;;;;;;;;6.30;100.00;96754.91;5053419;28;19944;-74
2023/04/18 02:10:14;;;;;;;;;;;;;;;6.29;100.00;96759.28;5054241;28;19942;-72
2023/04/18 02:12:40;;;;;;;;;;;;;;;6.30;100.00;96760.09;5052201;28;19959;-77
2023/04/18 02:15:06;;;;;;;;;;;;;;;6.27;100.00;96763.06;5052307;28;19972;-73
2023/04/18 02:17:35;;;;;;;;;;;;;;;6.27;100.00;96757.84;5060881;28;20299;-73
2023/04/18 02:20:00;;;;;;;;;;;;;;;6.27;100.00;96756.06;5052124;28;19943;-72
2023/04/18 02:22:26;;;;;;;;;;;;;;;6.27;100.00;96747.44;5035509;28;19954;-74
2023/04/18 02:24:52;;;;;;;;;;;;;;;6.24;100.00;96751.22;5052750;28;20020;-73
2023/04/18 02:27:18;;;;;;;;;;;;;;;6.19;100.00;96745.72;5053218;28;19950;-73
2023/04/18 02:29:44;;;;;;;;;;;;;;;6.18;100.00;96751.94;5052645;28;19949;-77
2023/04/18 02:32:10;;;;;;;;;;;;;;;6.16;100.00;96751.31;5053335;28;19951;-74
2023/04/18 02:34:36;;;;;;;;;;;;;;;6.15;100.00;96752.28;5052887;28;20440;-74
2023/04/18 02:37:02;;;;;;;;;;;;;;;6.16;100.00;96753.94;5053026;28;19970;-74
2023/04/18 02:39:28;;;;;;;;;;;;;;;6.18;100.00;96751.94;5057120;28;20295;-74
2023/04/18 02:41:54;;;;;;;;;;;;;;;6.21;100.00;96750.78;5056754;28;19949;-74
2023/04/18 02:44:20;;;;;;;;;;;;;;;6.24;100.00;96748.63;5057900;28;19937;-74
2023/04/18 02:46:45;;;;;;;;;;;;;;;6.25;100.00;96754.63;5057830;28;20298;-73
2023/04/18 02:49:11;;;;;;;;;;;;;;;6.26;100.00;96743.22;5057841;28;20387;-74
2023/04/18 02:51:37;;;;;;;;;;;;;;;6.24;100.00;96746.00;5038969;28;19964;-76
2023/04/18 02:54:03;;;;;;;;;;;;;;;6.22;100.00;96736.78;5039365;28;19941;-76
2023/04/18 02:56:29;;;;;;;;;;;;;;;6.20;100.00;96742.16;5056812;28;19935;-76
2023/04/18 02:58:55;;;;;;;;;;;;;;;6.20;100.00;96741.34;5055651;28;19946;-78
2023/04/18 03:01:20;;;;;;;;;;;;;;;6.19;100.00;96739.72;5056343;28;19946;-75
2023/04/18 03:03:46;;;;;;;;;;;;;;;6.20;100.00;96747.34;5055716;28;19936;-76
2023/04/18 03:06:12;;;;;;;;;;;;;;;6.18;100.00;96741.53;5056717;28;20033;-76
2023/04/18 03:08:38;;;;;;;;;;;;;;;6.17;100.00;96741.69;5056218;28;19940;-73
2023/04/18 03:11:04;;;;;;;;;;;;;;;6.16;100.00;96746.09;5056445;28;19949;-73
2023/04/18 03:13:30;;;;;;;;;;;;;;;6.17;100.00;96739.09;5056399;28;19950;-74
2023/04/18 03:15:56;;;;;;;;;;;;;;;6.18;100.00;96738.13;5055252;28;19965;-75
2023/04/18 03:18:21;;;;;;;;;;;;;;;6.19;100.00;96740.53;5056349;28;20409;-75
2023/04/18 03:20:47;;;;;;;;;;;;;;;6.20;100.00;96739.56;5056576;28;19957;-74
2023/04/18 03:23:13;;;;;;;;;;;;;;;6.20;100.00;96739.56;5056806;28;19946;-74
2023/04/18 03:25:39;;;;;;;;;;;;;;;6.21;100.00;96740.34;5055055;28;19940;-73
2023/04/18 03:28:05;;;;;;;;;;;;;;;6.20;100.00;96739.56;5038492;28;19943;-72
2023/04/18 03:30:31;;;;;;;;;;;;;;;6.19;100.00;96737.91;5057039;28;19989;-73
2023/04/18 03:32:58;;;;;;;;;;;;;;;6.19;100.00;96740.53;5038166;28;19975;-71
2023/04/18 03:35:24;;;;;;;;;;;;;;;6.18;100.00;96736.31;5056901;28;19944;-71
2023/04/18 03:37:50;;;;;;;;;;;;;;;6.20;100.00;96734.34;5055944;28;19965;-72
2023/04/18 03:40:16;;;;;;;;;;;;;;;6.22;100.00;96740.19;5054745;28;19946;-72
2023/04/18 03:42:41;;;;;;;;;;;;;;;6.21;100.00;96735.94;5055499;28;19942;-79
2023/04/18 03:45:08;;;;;;;;;;;;;;;6.20;100.00;96736.16;5054623;28;19951;-74
2023/04/18 03:47:33;;;;;;;;;;;;;;;6.23;100.00;96736.56;5037992;28;20293;-74
2023/04/18 03:49:59;;;;;;;;;;;;;;;6.21;100.00;96738.53;5054365;28;19946;-74
2023/04/18 03:52:25;;;;;;;;;;;;;;;6.22;100.00;96740.19;5054384;28;19966;-74
2023/04/18 03:54:51;;;;;;;;;;;;;;;6.22;100.00;96739.38;5055906;28;19941;-73
2023/04/18 03:57:17;;;;;;;;;;;;;;;6.22;100.00;96737.56;5055767;28;19948;-74
2023/04/18 03:59:43;;;;;;;;;;;;;;;6.21;100.00;96737.75;5055615;28;19965;-74
2023/04/18 04:02:08;;;;;;;;;;;;;;;6.20;100.00;96734.34;5056431;28;19950;-79
2023/04/18 04:04:34;;;;;;;;;;;;;;;6.21;100.00;96735.94;5054365;28;20004;-71
2023/04/18 04:07:00;;;;;;;;;;;;;;;6.21;100.00;96735.13;5055493;28;19952;-71
2023/04/18 04:09:26;;;;;;;;;;;;;;;6.21;100.00;96738.53;5055994;28;19942;-72
2023/04/18 04:11:52;;;;;;;;;;;;;;;6.19;100.00;96737.91;5037460;28;19994;-72
2023/04/18 04:14:18;;;;;;;;;;;;;;;6.21;100.00;96740.34;5055863;28;19943;-72
2023/04/18 04:16:44;;;;;;;;;;;;;;;6.22;100.00;96747.19;5053930;28;20010;-71
2023/04/18 04:19:10;;;;;;;;;;;;;;;6.21;100.00;96741.16;5055754;28;19964;-74
2023/04/18 04:21:35;;;;;;;;;;;;;;;6.19;100.00;96743.13;5054098;28;19944;-72
2023/04/18 04:24:01;;;;;;;;;;;;;;;6.19;100.00;96735.31;5055205;28;19943;-75
2023/04/18 04:26:29;;;;;;;;;;;;;;;6.20;100.00;96730.94;5037224;28;19946;-75
2023/04/18 04:28:56;;;;;;;;;;;;;;;6.19;100.00;96735.31;5053757;28;19950;-74
2023/04/18 04:31:22;;;;;;;;;;;;;;;6.19;100.00;96750.16;5037125;28;19943;-74
2023/04/18 04:33:48;;;;;;;;;;;;;;;6.14;100.00;96744.69;5053667;28;19949;-74
2023/04/18 04:36:15;;;;;;;;;;;;;;;6.12;100.00;96747.47;5054136;28;19970;-74
2023/04/18 04:38:43;;;;;;;;;;;;;;;6.10;100.00;96747.63;5037013;28;19951;-71
2023/04/18 04:41:09;;;;;;;;;;;;;;;6.08;100.00;96751.41;5053706;28;19952;-75
2023/04/18 04:43:35;;;;;;;;;;;;;;;6.08;100.00;96749.63;5053626;28;19983;-74
2023/04/18 04:46:04;;;;;;;;;;;;;;;6.10;100.00;96752.03;5053630;28;19938;-75
2023/04/18 04:48:30;;;;;;;;;;;;;;;6.10;100.00;96750.25;5054575;28;19955;-75
2023/04/18 04:50:56;;;;;;;;;;;;;;;6.08;100.00;96748.81;5054902;28;19938;-74
2023/04/18 04:53:23;;;;;;;;;;;;;;;6.06;100.00;96743.78;5054495;28;19958;-75
2023/04/18 04:55:49;;;;;;;;;;;;;;;6.03;100.00;96744.16;5054181;28;19940;-75
2023/04/18 04:58:15;;;;;;;;;;;;;;;6.00;100.00;96743.69;5053605;28;20428;-73
2023/04/18 05:00:41;;;;;;;;;;;;;;;5.97;100.00;96747.47;5053875;28;19941;-77
2023/04/18 05:03:07;;;;;;;;;;;;;;;5.98;100.00;96743.88;5054420;28;19941;-76
2023/04/18 05:05:33;;;;;;;;;;;;;;;5.98;100.00;96743.06;5053927;28;19990;-77
2023/04/18 05:07:59;;;;;;;;;;;;;;;5.93;100.00;96746.19;5053815;28;19958;-77
2023/04/18 05:10:25;;;;;;;;;;;;;;;5.93;100.00;96748.81;5036397;28;20001;-77
2023/04/18 05:12:50;;;;;;;;;;;;;;;5.92;100.00;96746.38;5037097;28;19963;-77
2023/04/18 05:15:16;;;;;;;;;;;;;;;5.90;100.00;96744.78;5036134;28;20455;-77
2023/04/18 05:17:42;;;;;;;;;;;;;;;5.90;100.00;96739.56;5054184;28;19958;-73
2023/04/18 05:20:08;;;;;;;;;;;;;;;5.90;100.00;96749.19;5037100;28;19952;-73
2023/04/18 05:22:34;;;;;;;;;;;;;;;5.87;100.00;96758.13;5053978;28;19939;-72
2023/04/18 05:25:01;;;;;;;;;;;;;;;5.86;100.00;96766.94;5054083;28;19946;-74
2023/04/18 05:27:26;;;;;;;;;;;;;;;5.87;100.00;96768.53;5052813;28;19951;-74
2023/04/18 05:29:52;;;;;;;;;;;;;;;5.90;100.00;96772.59;5054426;28;19938;-74
2023/04/18 05:32:18;;;;;;;;;;;;;;;5.90;100.00;96768.19;5053900;28;20037;-74
2023/04/18 05:34:44;;;;;;;;;;;;;;;5.92;100.00;96764.59;5054356;28;19944;-78
2023/04/18 05:37:10;;;;;;;;;;;;;;;5.92;100.00;96765.38;5053399;28;19973;-80
2023/04/18 05:39:36;;;;;;;;;;;;;;;5.92;100.00;96772.41;5036089;28;19948;-78
2023/04/18 05:42:02;;;;;;;;;;;;;;;5.95;100.00;96785.09;5053281;28;19940;-77
2023/04/18 05:44:28;;;;;;;;;;;;;;;5.96;100.00;96784.09;5052491;28;19953;-79
2023/04/18 05:46:54;;;;;;;;;;;;;;;5.97;100.00;96783.94;5035861;28;20403;-78
2023/04/18 05:49:20;;;;;;;;;;;;;;;6.01;100.00;96781.78;5052456;28;19940;-80
2023/04/18 05:51:48;;;;;;;;;;;;;;;6.02;100.00;96772.97;5053193;28;19951;-73
2023/04/18 05:54:14;;;;;;;;;;;;;;;6.02;100.00;96772.97;5052993;28;19944;-74
2023/04/18 05:56:41;;;;;;;;;;;;;;;6.00;100.00;96761.94;5053039;28;19949;-80
2023/04/18 05:59:06;;;;;;;;;;;;;;;6.01;100.00;96774.78;5035773;28;19950;-83
2023/04/18 06:01:33;;;;;;;;;;;;;;;6.05;100.00;96773.44;5054338;28;19948;-81
2023/04/18 06:03:59;;;;;;;;;;;;;;;6.06;100.00;96774.22;5053530;28;19947;-82
2023/04/18 06:06:25;;;;;;;;;;;;;;;6.03;100.00;96765.00;5052327;28;19942;-81
2023/04/18 06:08:51;;;;;;;;;;;;;;;6.01;100.00;96768.75;5054224;28;19938;-82
2023/04/18 06:11:19;;;;;;;;;;;;;;;5.99;100.00;96765.53;5053528;28;19960;-73
2023/04/18 06:13:45;;;;;;;;;;;;;;;6.00;100.00;96774.94;5055481;28;20329;-80
2023/04/18 06:16:11;;;;;;;;;;;;;;;6.04;100.00;96778.81;5056217;28;19968;-82
2023/04/18 06:18:37;;;;;;;;;;;;;;;6.09;100.00;96792.09;5057206;28;20262;-82
2023/04/18 06:21:03;;;;;;;;;;;;;;;6.11;100.00;96787.53;5057510;28;19950;-82
2023/04/18 06:23:29;;;;;;;;;;;;;;;6.13;100.00;96798.53;5056168;28;19942;-84
2023/04/18 06:25:56;;;;;;;;;;;;;;;6.15;100.00;96795.75;5057935;28;19948;-81
2023/04/18 06:28:22;;;;;;;;;;;;;;;6.15;100.00;96793.97;5056991;28;19942;-74
2023/04/18 06:30:47;;;;;;;;;;;;;;;6.17;100.00;96797.19;5057223;28;19940;-74
2023/04/18 06:33:13;;;;;;;;;;;;;;;6.18;100.00;96793.59;5039390;28;20445;-74
2023/04/18 06:35:40;;;;;;;;;;;;;;;6.20;100.00;96789.03;5058009;28;19945;-74
2023/04/18 06:38:05;;;;;;;;;;;;;;;6.20;100.00;96798.66;5056034;28;19942;-73
2023/04/18 06:40:31;;;;;;;;;;;;;;;6.20;100.00;96794.25;5057018;28;19948;-73
2023/04/18 06:42:57;;;;;;;;;;;;;;;6.21;100.00;96798.44;5057884;28;19943;-74
2023/04/18 06:45:23;;;;;;;;;;;;;;;6.22;100.00;96804.47;5057487;28;19944;-73
2023/04/18 06:47:50;;;;;;;;;;;;;;;6.23;100.00;96801.69;5057499;28;19946;-72
2023/04/18 06:50:16;;;;;;;;;;;;;;;6.40;100.00;96807.50;5055830;28;19947;-72
2023/04/18 06:52:44;;;;;;;;;;;;;;;6.51;100.00;96803.63;5039666;28;19964;-71
2023/04/18 06:55:11;;;;;;;;;;;;;;;6.59;100.00;96797.47;5039680;28;19960;-72
2023/04/18 06:57:37;;;;;;;;;;;;;;;6.67;100.00;96802.59;5055599;28;19968;-72
2023/04/18 07:00:04;;;;;;;;;;;;;;;6.63;100.00;96791.72;5057290;28;19951;-72
2023/04/18 07:02:30;;;;;;;;;;;;;;;6.58;100.00;96799.28;5038845;28;20434;-71
2023/04/18 07:04:56;;;;;;;;;;;;;;;6.55;100.00;96793.63;5039627;28;19952;-75
2023/04/18 07:07:22;;;;;;;;;;;;;;;6.52;100.00;96797.41;5055436;28;20041;-72
2023/04/18 07:09:48;;;;;;;;;;;;;;;6.49;100.00;96795.19;5039537;28;20375;-76
2023/04/18 07:12:15;;;;;;;;;;;;;;;6.47;100.00;96787.53;5057202;28;19977;-76
2023/04/18 07:14:41;;;;;;;;;;;;;;;6.44;100.00;96795.72;5056715;28;19951;-75
2023/04/18 07:17:07;;;;;;;;;;;;;;;6.43;100.00;96804.53;5072757;28;19948;-76
2023/04/18 07:19:32;;;;;;;;;;;;;;;6.43;100.00;96804.53;5056018;28;20463;-77
2023/04/18 07:21:59;;;;;;;;;;;;;;;6.44;100.00;96802.72;5055084;28;20346;-76
2023/04/18 07:24:25;;;;;;;;;;;;;;;6.45;100.00;96801.75;5055828;28;19945;-71
2023/04/18 07:26:51;;;;;;;;;;;;;;;6.44;100.00;96800.13;5055820;28;20033;-71
2023/04/18 07:29:18;;;;;;;;;;;;;;;6.44;100.00;96805.34;5055664;28;19951;-72
2023/04/18 07:31:44;;;;;;;;;;;;;;;6.44;100.00;96803.53;5054855;28;19945;-71
2023/04/18 07:34:10;;;;;;;;;;;;;;;6.44;100.00;96800.94;5038224;28;19975;-71
2023/04/18 07:36:36;;;;;;;;;;;;;;;6.45;100.00;96810.38;5056386;28;19962;-71
2023/04/18 07:39:02;;;;;;;;;;;;;;;6.48;100.00;96814.41;5054872;28;20290;-71
2023/04/18 07:41:28;;;;;;;;;;;;;;;6.47;100.00;96816.22;5054826;28;19995;-72
2023/04/18 07:43:54;;;;;;;;;;;;;;;6.49;100.00;96822.03;5056425;28;19964;-77
2023/04/18 07:46:20;;;;;;;;;;;;;;;6.50;100.00;96821.03;5054705;28;19942;-74
2023/04/18 07:48:45;;;;;;;;;;;;;;;6.54;100.00;96823.28;5038663;28;19953;-74
2023/04/18 07:51:11;;;;;;;;;;;;;;;6.57;100.00;96817.69;5037907;28;19945;-74
2023/04/18 07:53:39;;;;;;;;;;;;;;;6.61;100.00;96818.97;5055672;28;19955;-74
2023/04/18 07:56:05;;;;;;;;;;;;;;;6.66;100.00;96822.63;5038693;28;19951;-74
2023/04/18 07:58:33;;;;;;;;;;;;;;;6.81;100.00;96822.59;5054416;28;19940;-74
2023/04/18 08:00:59;;;;;;;;;;;;;;;7.21;100.00;96824.78;5054457;28;19945;-73
2023/04/18 08:03:26;;;;;;;;;;;;;;;7.34;100.00;96814.47;5055558;28;20308;-72
2023/04/18 08:05:52;;;;;;;;;;;;;;;7.29;100.00;96815.03;5038337;28;19946;-71
2023/04/18 08:08:18;;;;;;;;;;;;;;;7.24;100.00;96824.41;5038385;28;19942;-72
2023/04/18 08:10:44;;;;;;;;;;;;;;;7.18;100.00;96827.75;5038494;28;20034;-71
2023/04/18 08:13:11;;;;;;;;;;;;;;;7.10;100.00;96832.13;5037552;28;19961;-71
2023/04/18 08:15:38;;;;;;;;;;;;;;;7.09;100.00;96837.50;5053990;28;20430;-71
2023/04/18 08:18:04;;;;;;;;;;;;;;;7.09;100.00;96845.34;5037487;28;20346;-72
2023/04/18 08:20:30;;;;;;;;;;;;;;;7.09;100.00;96840.91;5037429;28;20000;-75
2023/04/18 08:22:56;;;;;;;;;;;;;;;7.05;100.00;96839.66;5037381;28;20410;-72
2023/04/18 08:25:21;;;;;;;;;;;;;;;7.06;100.00;96841.31;5054566;28;19940;-72
2023/04/18 08:27:47;;;;;;;;;;;;;;;7.06;100.00;96830.06;5053874;28;20002;-71
2023/04/18 08:30:13;;;;;;;;;;;;;;;7.08;100.00;96839.31;5054679;28;20041;-72
2023/04/18 08:32:39;;;;;;;;;;;;;;;7.11;100.00;96841.53;5053798;28;19954;-71
2023/04/18 08:35:05;;;;;;;;;;;;;;;7.15;100.00;96843.78;5053157;28;20009;-72
2023/04/18 08:37:34;;;;;;;;;;;;;;;7.17;100.00;96829.56;5054981;28;19954;-72
2023/04/18 08:40:01;;;;;;;;;;;;;;;7.24;100.00;96835.63;5053660;28;19949;-73
2023/04/18 08:42:27;;;;;;;;;;;;;;;7.31;100.00;96835.72;5054403;28;19940;-78
2023/04/18 08:44:53;;;;;;;;;;;;;;;7.37;100.00;96842.81;5054819;28;19946;-78
2023/04/18 08:47:19;;;;;;;;;;;;;;;7.41;100.00;96830.16;5037057;28;20319;-78
2023/04/18 08:49:45;;;;;;;;;;;;;;;7.45;100.00;96840.03;5054681;28;19959;-77
2023/04/18 08:52:12;;;;;;;;;;;;;;;7.50;100.00;96836.88;5053413;28;19946;-78
2023/04/18 08:54:42;;;;;;;;;;;;;;;7.52;100.00;96842.72;5054157;28;20314;-78
2023/04/18 08:57:11;;;;;;;;;;;;;;;7.53;100.00;96839.91;5054108;28;19946;-74
2023/04/18 08:59:37;;;;;;;;;;;;;;;7.56;100.00;96838.75;5037501;28;20528;-74
2023/04/18 09:02:05;;;;;;;;;;;;;;;7.58;100.00;96841.16;5055170;28;19957;-74
2023/04/18 09:04:33;;;;;;;;;;;;;;;7.59;100.00;96848.00;5054918;28;19957;-74
2023/04/18 09:06:59;;;;;;;;;;;;;;;7.62;100.00;96845.00;5054257;28;19940;-73
2023/04/18 09:09:26;;;;;;;;;;;;;;;7.66;100.00;96841.81;5052991;28;20430;-73
2023/04/18 09:12:08;;;;;;;;;;;;;;;7.75;100.00;96846.88;5054202;28;19949;-73
2023/04/18 09:14:41;;;;;;;;;;;;;;;7.84;100.00;96838.75;5054452;28;20309;-73
2023/04/18 09:17:10;;;;;;;;;;;;;;;7.95;100.00;96844.44;5037193;28;20411;-74
2023/04/18 09:19:42;;;;;;;;;;;;;;;8.08;100.00;96845.34;5053186;28;19963;-74
2023/04/18 09:22:08;;;;;;;;;;;;;;;8.18;100.00;96844.16;5036726;28;19949;-74
2023/04/18 09:24:34;;;;;;;;;;;;;;;8.27;100.00;96841.22;5036763;28;19954;-74
2023/04/18 09:27:02;;;;;;;;;;;;;;;8.37;100.00;96833.00;5036934;28;19941;-74
2023/04/18 09:29:44;;;;;;;;;;;;;;;8.51;100.00;96836.53;5053405;28;19945;-74
2023/04/18 09:32:18;;;;;;;;;;;;;;;8.66;100.00;96829.34;5036302;28;20392;-72
2023/04/18 09:34:44;;;;;;;;;;;;;;;8.75;100.00;96824.72;5053297;28;20020;-78
2023/04/18 09:37:11;;;;;;;;;;;;;;;8.88;100.00;96835.25;5052463;28;19983;-78
2023/04/18 09:39:38;;;;;;;;;;;;;;;8.96;100.00;96829.00;5053265;28;20342;-77
2023/04/18 09:42:04;;;;;;;;;;;;;;;9.05;100.00;96830.47;5053754;28;19956;-77
2023/04/18 09:44:30;;;;;;;;;;;;;;;9.09;100.00;96830.84;5053213;28;19964;-77
2023/04/18 09:46:56;;;;;;;;;;;;;;;9.07;100.00;96830.25;5051682;28;19944;-78
2023/04/18 09:49:22;;;;;;;;;;;;;;;9.05;99.81;96830.47;5036593;28;20034;-78
2023/04/18 09:51:52;;;;;;;;;;;;;;;9.00;99.67;96822.38;5036386;28;19949;-73
2023/04/18 09:54:19;;;;;;;;;;;;;;;9.00;100.00;96832.03;5053945;28;20410;-73
2023/04/18 09:56:46;;;;;;;;;;;;;;;8.99;100.00;96838.28;5053904;28;19939;-74
2023/04/18 09:59:15;;;;;;;;;;;;;;;9.00;100.00;96829.44;5052177;28;19947;-73
2023/04/18 10:01:46;;;;;;;;;;;;;;;9.03;100.00;96836.88;5036311;28;19948;-73
2023/04/18 10:04:13;;;;;;;;;;;;;;;9.10;100.00;96841.13;5054040;28;19942;-74
2023/04/18 10:06:40;;;;;;;;;;;;;;;9.24;100.00;96839.34;5036271;28;20319;-73
2023/04/18 10:09:07;;;;;;;;;;;;;;;9.37;100.00;96833.31;5053322;28;19964;-73
2023/04/18 10:11:33;;;;;;;;;;;;;;;9.56;100.00;96823.84;5052217;28;19942;-79
2023/04/18 10:14:08;;;;;;;;;;;;;;;10.09;100.00;96828.22;5036086;28;20313;-74
2023/04/18 10:16:34;;;;;;;;;;;;;;;10.66;99.58;96797.78;5035431;28;19977;-74
2023/04/18 10:19:18;;;;;;;;;;;;;;;11.02;94.10;96774.59;5051980;28;19961;-73
2023/04/18 10:21:54;;;;;;;;;;;;;;;11.41;92.80;96768.25;5052835;28;20383;-74
2023/04/18 10:24:38;;;;;;;;;;;;;;;11.84;90.70;96754.28;5053207;28;19947;-73
2023/04/18 10:27:05;;;;;;;;;;;;;;;12.05;89.63;96750.47;5051972;28;19943;-74
2023/04/18 10:30:00;;;;;;;;;;;;;;;12.07;88.94;96756.31;5035191;28;19946;-72
2023/04/18 10:32:26;;;;;;;;;;;;;;;11.87;86.91;96739.94;5043402;28;19963;-74
2023/04/18 10:34:53;;;;;;;;;;;;;;;11.75;89.25;96752.97;5053986;28;19945;-74
2023/04/18 10:37:18;;;;;;;;;;;;;;;11.85;90.43;96774.31;5051877;28;19965;-74
2023/04/18 10:39:47;;;;;;;;;;;;;;;12.09;89.34;96762.13;5053044;28;19942;-74
2023/04/18 10:42:13;;;;;;;;;;;;;;;12.35;86.91;96744.47;5051919;28;19948;-74
2023/04/18 10:44:39;;;;;;;;;;;;;;;12.37;77.91;96672.22;5051874;28;19940;-74
2023/04/18 10:47:05;;;;;;;;;;;;;;;12.48;81.80;96698.78;5052308;28;19995;-78
2023/04/18 10:49:31;;;;;;;;;;;;;;;12.74;83.08;96721.28;5035280;28;19963;-72
2023/04/18 10:51:58;;;;;;;;;;;;;;;12.98;81.80;96711.63;5051780;28;20030;-73
2023/04/18 10:54:24;;;;;;;;;;;;;;;13.22;83.51;96719.53;5035862;28;19969;-73
2023/04/18 10:56:52;;;;;;;;;;;;;;;13.17;79.80;96680.72;5051714;28;19990;-73
2023/04/18 10:59:20;;;;;;;;;;;;;;;13.05;78.58;96674.66;5054771;28;19952;-72
2023/04/18 11:01:48;;;;;;;;;;;;;;;12.93;80.62;96700.94;5056109;28;19949;-73
2023/04/18 11:04:15;;;;;;;;;;;;;;;12.91;81.35;96703.00;5056339;28;19940;-74
2023/04/18 11:06:53;;;;;;;;;;;;;;;12.79;80.09;96684.56;5055231;28;19944;-72
2023/04/18 11:09:20;;;;;;;;;;;;;;;12.73;78.67;96685.47;5056375;28;19942;-74
2023/04/18 11:12:01;;;;;;;;;;;;;;;12.59;76.78;96672.50;5039401;28;20413;-74
2023/04/18 11:14:37;;;;;;;;;;;;;;;12.46;83.29;96727.94;5039145;28;19961;-74
2023/04/18 11:17:16;;;;;;;;;;;;;;;12.30;76.48;96671.47;5072479;28;19949;-74
2023/04/18 11:19:42;;;;;;;;;;;;;;;12.18;80.46;96702.19;5055636;28;19949;-75
2023/04/18 11:22:08;;;;;;;;;;;;;;;12.10;79.20;96694.63;5056266;28;19944;-74
2023/04/18 11:24:34;;;;;;;;;;;;;;;11.94;81.30;96719.66;5056581;28;19962;-74
2023/04/18 11:27:02;;;;;;;;;;;;;;;11.81;82.45;96733.72;5055102;28;19947;-73
2023/04/18 11:29:28;;;;;;;;;;;;;;;11.79;82.87;96727.88;5056141;28;19942;-72
2023/04/18 11:31:54;;;;;;;;;;;;;;;11.83;80.28;96713.28;5054931;28;20366;-72
2023/04/18 11:34:20;;;;;;;;;;;;;;;12.05;81.54;96728.63;5055878;28;19966;-73
2023/04/18 11:36:52;;;;;;;;;;;;;;;12.05;83.01;96741.78;5056004;28;19954;-72
2023/04/18 11:39:18;;;;;;;;;;;;;;;11.93;79.00;96705.72;5055629;28;19947;-73
2023/04/18 11:41:49;;;;;;;;;;;;;;;11.71;77.77;96694.00;5055930;28;19994;-74
2023/04/18 11:44:24;;;;;;;;;;;;;;;11.57;77.54;96701.25;5038944;28;19948;-76
2023/04/18 11:46:51;;;;;;;;;;;;;;;11.63;82.09;96738.94;5038814;28;19945;-77
2023/04/18 11:49:26;;;;;;;;;;;;;;;11.62;80.55;96713.72;5054680;28;19943;-78
2023/04/18 11:51:52;;;;;;;;;;;;;;;11.67;80.93;96724.34;5054674;28;20342;-78
2023/04/18 11:54:40;;;;;;;;;;;;;;;11.56;79.92;96720.63;5055678;28;19962;-77
2023/04/18 11:57:17;;;;;;;;;;;;;;;11.34;78.55;96704.50;5055157;28;19952;-77
2023/04/18 11:59:53;;;;;;;;;;;;;;;11.28;81.92;96734.22;5038756;28;19943;-72
2023/04/18 12:02:20;;;;;;;;;;;;;;;11.33;83.17;96748.28;5038520;28;20389;-73
2023/04/18 12:04:51;;;;;;;;;;;;;;;11.37;81.75;96738.97;5055051;28;19941;-72
2023/04/18 12:07:31;;;;;;;;;;;;;;;11.36;81.39;96732.13;5037831;28;19951;-73
2023/04/18 12:09:57;;;;;;;;;;;;;;;11.39;82.54;96746.66;5054071;28;19953;-72
2023/04/18 12:12:23;;;;;;;;;;;;;;;11.43;81.79;96734.69;5055989;28;19939;-73
2023/04/18 12:14:56;;;;;;;;;;;;;;;11.49;81.25;96738.28;5055087;28;20391;-72
2023/04/18 12:17:24;;;;;;;;;;;;;;;11.56;81.58;96733.75;5055260;28;19943;-73
2023/04/18 12:19:52;;;;;;;;;;;;;;;11.62;81.47;96732.91;5037914;28;19952;-74
2023/04/18 12:22:18;;;;;;;;;;;;;;;11.72;84.96;96756.06;5053936;28;19942;-74
2023/04/18 12:24:45;;;;;;;;;;;;;;;11.80;83.12;96740.00;5037295;28;19937;-74
2023/04/18 12:27:11;;;;;;;;;;;;;;;11.77;80.84;96728.09;5037234;28;20386;-74
2023/04/18 12:29:36;;;;;;;;;;;;;;;11.72;80.08;96730.56;5055064;28;19934;-74
2023/04/18 12:32:02;;;;;;;;;;;;;;;11.75;79.70;96706.47;5054918;28;19944;-74
2023/04/18 12:34:28;;;;;;;;;;;;;;;11.88;82.69;96738.91;5053512;28;19971;-74
2023/04/18 12:36:54;;;;;;;;;;;;;;;11.96;78.61;96704.47;5053598;28;20013;-74
2023/04/18 12:39:20;;;;;;;;;;;;;;;11.88;78.94;96702.94;5054499;28;19955;-77
2023/04/18 12:41:46;;;;;;;;;;;;;;;11.89;80.38;96719.53;5054618;28;19993;-74
2023/04/18 12:44:12;;;;;;;;;;;;;;;12.05;81.72;96726.00;5055159;28;19995;-74
2023/04/18 12:46:38;;;;;;;;;;;;;;;12.11;75.80;96683.84;5054055;28;19989;-74